Timeline UpdatesTrip UpdatesNews PostsPvt PostsTravel TipsAdmin PostsConv PostsFollowed PostsChat RequestsBlog PostsPNR Posts

Disclaimer
Search
 
 
Thu Oct 2, 2014 18:00:53 ISTHomeTrainsΣChainsAtlasPNRForumGalleryNewsFAQTripsMembersLoginFeedback
No Recent News for this Train
Other Trains in the News **new
Latest...
.
Sat Feb 02, 2013 (04:10PM)
⇐ Return Journey: Train# 51187

51188/Katni - Bhusaval Passenger (UnReserved)

Time-Table HAS CHANGED.
Sep 05 (2:13PM)
Change Departure Station:
Change Arrival Station:
Post a Train Travel TipPost a Train Travel Tip **new
Post a Comment/Question/Picture/VideoPost a Comment/Question/Picture/Video
Pantry/Catering
✕ NO Pantry Car
✕ NO Catering
RSA - Rake Sharing
Rake/Coach Composition
Loco
KTE-ET: KTE/ET WDM-3A ET-BSL: BSL/ET WAP-4
News    PNR    Forum    Time-Table    Availability    Fare Chart    Map    Arr/Dep History    Trips    Gallery    ΣChains    X/O    Timeline    
Travel Time: 7h 0m    23 halts    Distance: 199 km    Avg Speed: 28 km/hr
Type: Passenger
Zone: CR/Central
Departs @ 10:00 (Avg 3h 45m late)
Platform# 1
SMTWTFS
Khirkiya/KKN 
Arrives @ 17:00 (Avg 2h 49m late)
Platform# 6
SMTWTFS
Bhusaval Junction/BSL 

23 halts. 24 intermediate Stations between Khirkiya and Bhusaval Junction

Show ALL intermediate Stations  Show Old Time-Table

#CodeStation NameX/OArrivesAvgDepartsAvgHaltPFDay#KmSpeedElevZoneAddress
1KTEKatni Junction (6)  -22:20+4351-443.232387mWCRKatni, Madhya Pradesh
2MDRRMadhavnagar Road (2)  22:30-22:31-1m--1-437.947398mWCRMadhavnagar, Madhya Pradesh
3NWRNiwar (2)X  22:41+1:2722:42+1:381m--1-430.052412mWCRPipraundh, Madhya Pradesh
4SNRRSansarpur (2)X  22:51-22:52-1m--1-422.259436mWCRNational Highway 7, Madhya Pradesh
5SBDSleemanabad Road (2)X  22:59+5623:00+571m--1-415.357434mWCRSleemanabad, Madhya Pradesh
6DDCEDundi (2)  23:10+1:3623:11+1:461m--1-405.860415mWCRDundi, Madhya Pradesh
7SHRSihora Road (2)X  23:26+1:4523:28+1:492m--1-390.961388mWCRJabalpur, Madhya Pradesh
8GSPRGosalpur (2)X  23:39+1:4823:40+1:541m--1-379.857396mWCRJabalpur, Madhya Pradesh
9DOEDeori (2)  23:51+1:5223:52+1:531m--1-369.348392mWCRJabalpur, Madhya Pradesh
10ADTLAdhartal (2)  00:03+1:5000:04+1:591m--2-360.582393mWCRJabalpur, Madhya Pradesh
11JBPJabalpur Junction (4)X  00:20 00:10+3300:30 00:20+4110m12-352.314416mWCRJabalpur, Madhya Pradesh
12MMLMadan Mahal (3)  00:34+2:1500:36+2:152m12-349.056428mWCRJabalpur, Madhya Pradesh
13BRGTBheraghat (2)  00:50+2:3500:51+2:411m--2-335.952389mWCRBheraghat, Madhya Pradesh
14BHTNBhitoni (2)X  01:04 01:06+2:4001:05 01:08+2:471 2m--2-322.769377mWCRJabalpur, Madhya Pradesh
15BMRBikrampur (2)  01:17 01:18+2:4701:18 01:20+2:551 2m--2-311.259353mWCRBikrampur Dist Narsingpur., Madhya Pradesh
16SRIDShridham (3)X  01:29 01:32+2:3201:31 01:34+2:392m32-299.466373mWCRShridham, Madhya Pradesh
17KKBKarak Bel (2)O  01:48+3:1101:49+3:161m--2-284.029375mWCRKarak Bel, Madhya Pradesh
18BELDBelkhera (2)  01:58+2:4701:59+2:531m--2-279.633367mWCRState Highway 22, Madhya Pradesh
19GPCGhatpindrai (2)O  02:09+3:1702:10+3:211m--2-274.135366mWCRGhatpindra, Madhya Pradesh
20NUNarsinghpur (2)X  02:20+1:5502:22+2:052m22-268.368365mWCRNarsimhapur, Madhya Pradesh
21KYKareli (2)X  02:36+2:3702:37+2:381m22-252.447361mWCRKareli, Madhya Pradesh
22KFYKarapgaon (2)X  02:48-02:49-1m--2-243.847363mWCRNational Highway 26, Madhya Pradesh
23BNEBohani (2)XO  02:58+3:3502:59+3:361m--2-236.978361mWCRNarsinghpur, Madhya Pradesh
24GARGadarwara (2)XO  03:09+3:3803:10+3:411m22-223.956352mWCRNarsinghpur, Madhya Pradesh
25SCKRSalichauka Road (2)X  03:25+3:3803:26+3:451m--2-210.061355mWCRGadarwara, Madhya Pradesh
26JHTJunehta (2)  03:36-03:37-1m--2-199.951353mWCRState Highway 22, Madhya Pradesh
27BKHBankhedi (2)X  03:44+3:4303:46+3:522m--2-194.069351mWCRBankheri, Madhya Pradesh
28PPIPipariya (3)X  04:03+3:2404:05+3:322m32-174.640338mWCRPiparia, Madhya Pradesh
29SXFSobhapur (2)X  04:18-04:19-1m--2-165.945338mWCRState Highway 22, Madhya Pradesh
30SGPSohagpur (2)X  04:31+3:5504:33+3:572m--2-156.943340mWCRSohagpur, Madhya Pradesh
31GMDGuramkhedi (2)  04:47+3:5304:48+3:541m--2-146.849337mWCRGuramkhedi, Madhya Pradesh
32BGTABagratawa (2)O  05:04+3:4905:05+3:591m--2-133.829338mWCRBagra Tawa, Madhya Pradesh
33SQLSontalai (2)X  05:19+3:5405:20+4:101m--2-126.927329mWCRItarsi, Madhya Pradesh
34GROGurra (2)X  05:40+3:4905:41+3:571m--2-117.916327mWCRItarsi, Madhya Pradesh
35ETItarsi Junction (7)  06:20+1:5206:45+1:5225m--2-107.357329mWCRItarsi 461111, Madhya Pradesh
36DRADularia (2)  06:58+4:1706:59+4:291m--2-95.142318mWCRItarsi, Madhya Pradesh
37KTZKhutwansa (2)X  07:07-07:08-1m--2-89.555325mWCRSH 15, Madhya Pradesh
38DKIDharamkundi (2)O  07:17 07:16+4:2507:18+4:251 2m--2-82.131314mWCRSH 15, Madhya Pradesh
39BPFBanapura (2)  07:34+3:5107:35+3:591m--2-73.949314mWCRBanapura, Madhya Pradesh
40BIFBhaironpur (2)O  07:44+3:5807:45+3:591m--2-66.649322mWCRSH 15, Madhya Pradesh
41PGLPagdhal (2)X  07:54+4:2107:55+4:281m--2-59.341317mWCRPagdhal, Madhya Pradesh
42CGOChhidgaon (2)X  08:01-08:02-1m--2-55.126309mWCRHarda, Madhya Pradesh
43TBNTimarni (2)  08:24+4:1108:25+4:121m--2-45.647308mWCRTimarni, Madhya Pradesh
44CRKCharkhera (2)XO  08:34+4:1008:35+4:141m--2-38.623298mWCRBarkalan, Madhya Pradesh
45HDHarda (3)X  08:53+4:0808:55+4:092m--2-31.574289mWCRHarda, Madhya Pradesh
46PALPalasner (2)  09:02 09:01+4:0509:03+4:061 2m--2-24.144296mWCRHarda, Madhya Pradesh
47MUOMasangaon (2)XO  09:12 09:11+4:0309:13+4:041 2m--2-18.212303mWCRSH 15, Madhya Pradesh
48BRIBhiringi (2)  09:39 09:38+3:4509:40+3:491 2m--2-13.0133294mWCRSH 15, Madhya Pradesh
49KROKurawan (2)X  09:44 09:43-09:45-1 2m--2-6.429297mWCRSH 15, Madhya Pradesh
50KKNKhirkiya (2)»O  09:58+3:4510:00+3:452m120.041281mWCRSH 15, Madhya Pradesh
51DRHIDagarhkeri (2)XO  10:17 10:16+3:5610:18+4:011 2m--210.921274mWCRState Highway 15, Madhya Pradesh
52BRUDBarud (2)X  10:47 10:46+3:4210:48+3:561 2m--220.576273mWCRKhandwa, Madhya Pradesh
53CAERChhanera (2)XO  10:56+3:5810:58+3:582m--230.723283mWCRChhanera, Madhya Pradesh
54CKKDCharkheda Khurd (2)  11:17 11:16+3:4811:18+3:481 2m--237.524274mWCRKhandwa, Madhya Pradesh
55SGBJSurgaon Banjari (2)  11:47 11:46+3:3211:48+3:321 2m--248.671298mWCRKhandwa, Madhya Pradesh
56TLVTalvadiya (2)  11:58+3:3212:00+3:442m--260.463308mWCRKhandwa, Madhya Pradesh
57MTAMathela (2)XO  12:09 12:08+3:4512:10+3:461 2m--268.76322mWCRKhandwa, Madhya Pradesh
58KNWKhandwa Junction (5)  13:20+2:1213:30+2:1210m--276.144310mCRKhandwa, Madhya Pradesh
59BRGJBargaon Gujar (2)  13:37+2:0613:38+2:061m--281.260316mCRKhandwa, Madhya Pradesh
60BMABagmar (2)X  13:44+2:0613:45+2:061m--287.266335mCRState Highway 27, Madhya Pradesh
61KDKKohdad (2)X  13:49+2:1013:50+2:091m--291.657344mCRState Highway 15, Madhya Pradesh
62DGNDongargaon (2)  13:58+2:1013:59+2:301m1299.258373mCRBorgaon, Madhya Pradesh
63SXASagphata (2)  14:07+2:2914:08+2:291m--2106.951350mCRKhandwa, Madhya Pradesh
64MWAMandwa (2)X  14:15+2:3014:16+2:301m--2112.944317mCRState Highway 27, Madhya Pradesh
65NPNRNepanagar (2)  14:24+3:2114:26+3:202m--2118.753289mCRState Highway 27, Madhya Pradesh
66CDIChandni (2)X  14:34+2:3114:35+2:321m--2125.877276mCRNepanagar Rd, Madhya Pradesh
67AGQAsirgarh Road (2)  14:43+2:3214:44+2:431m--2136.067259mCRState Highway 27, Madhya Pradesh
68BAUBurhanpur (2)X  14:52+2:3014:55+2:323m12145.062269mCRBurhanpur, Madhya Pradesh
69WGAWaghodaX  15:05+2:5615:06+3:021m--2155.260259mCRChorwad, Maharashtra
70RVRaver (2)X  15:16+2:2315:18+2:232m--2165.268242mCRJalgaon, Maharashtra
71NBNimbhora (2)X  15:27+1:5115:28+1:511m--2175.358229mCRJalgaon, Maharashtra
72SAVSavda (2)  15:37+1:1415:38+1:141m--2184.058220mCRSavda, Maharashtra
73DSKDuskheda (2)X  15:47+1:5115:48+2:021m--2192.76213mCRDuskheda Station, Maharashtra
74BSLBhusaval Junction (8)•  17:00+2:49-62199.5-208mCRBhusaval 425201, Maharashtra
Scroll to Top
Scroll to Bottom